Time;durP1;ratioP1;P1;durP2;ratioP2;P2;SDS_P1;SDS_P2;PMS_P1;PMS_P2;Temp;Humidity;BMP_temperature;BMP_pressure;BME280_temperature;BME280_humidity;BME280_pressure;Samples;Min_cycle;Max_cycle;Signal;HPM_P1;HPM_P2
2023/12/22 10:07:14;;;;;;;;;;;;;;;;;;6217937;22;19945;-83
2023/12/22 10:09:40;;;;;;;;;;;;;;;;;;6247604;23;19919;-87
2023/12/22 10:12:06;;;;;;;;;;;;;;;;;;6247703;23;20041;-89
2023/12/22 10:14:33;;;;;;;;;;;;;;;;;;6220376;23;20322;-83
2023/12/22 10:16:59;;;;;;;;;;;;;;;;;;6247490;23;19916;-81
2023/12/22 10:19:24;;;;;;;;;;;;;;;;;;6248706;23;19980;-83
2023/12/22 10:21:50;;;;;;;;;;;;;;;;;;6247539;23;19907;-84
2023/12/22 10:24:34;;;;;;;;;;;;;;;;;;6247340;23;20326;-83
2023/12/22 10:27:00;;;;;;;;;;;;;;;;;;6247980;23;19918;-86
2023/12/22 10:29:51;;;;;;;;;;;;;;;;;;6260704;23;19908;-95
2023/12/22 10:32:32;;;;;;;;;;;;;;;;;;6264596;23;19915;-85
2023/12/22 10:34:58;;;;;;;;;;;;;;;;;;6269016;23;19951;-93
2023/12/22 10:37:23;;;;;;;;;;;;;;;;;;6241142;23;19919;-93
2023/12/22 10:39:58;;;;;;;;;;;;;;;;;;6232112;23;19959;-84
2023/12/22 10:42:23;;;;;;;;;;;;;;;;;;6257812;23;20266;-84
2023/12/22 10:44:49;;;;;;;;;;;;;;;;;;6257168;23;19907;-84
2023/12/22 10:47:15;;;;;;;;;;;;;;;;;;6256716;23;19911;-87
2023/12/22 10:49:41;;;;;;;;;;;;;;;;;;6224502;23;19958;-83
2023/12/22 10:52:10;;;;;;;;;;;;;;;;;;6228669;23;19934;-86
2023/12/22 10:54:35;;;;;;;;;;;;;;;;;;6253830;23;20250;-86
2023/12/22 10:57:01;;;;;;;;;;;;;;;;;;6231191;23;19908;-86
2023/12/22 10:59:28;;;;;;;;;;;;;;;;;;6227505;23;19982;-86
2023/12/22 11:01:56;;;;;;;;;;;;;;;;;;6231698;23;19911;-86
2023/12/22 11:04:29;;;;;;;;;;;;;;;;;;6262294;23;19907;-86
2023/12/22 11:06:56;;;;;;;;;;;;;;;;;;6245360;23;19903;-87
2023/12/22 11:09:24;;;;;;;2.58;1.88;;;;;;;;;;6199446;23;19943;-86
2023/12/22 11:11:51;;;;;;;2.10;1.85;;;;;;;;;;6223853;23;20034;-86
2023/12/22 11:14:17;;;;;;;3.35;2.08;;;;;;;;;;6249879;23;20000;-85
2023/12/22 11:16:48;;;;;;;2.67;2.17;;;;;;;;;;6255229;23;20008;-87
2023/12/22 11:19:14;;;;;;;2.67;1.98;;;;;;;;;;6176843;23;20004;-86
2023/12/22 11:21:40;;;;;;;5.13;1.73;;;;;;;;;;6224066;23;20006;-88
2023/12/22 11:24:07;;;;;;;2.80;1.98;;;;;;;;;;6223362;23;20023;-88
2023/12/22 11:26:33;;;;;;;2.10;1.90;;;;;;;;;;6225172;23;20082;-93
2023/12/22 11:28:59;;;;;;;3.47;2.25;;;;;;;;;;6222390;23;19996;-91
2023/12/22 11:31:27;;;;;;;2.90;2.08;;;;;;;;;;6222010;23;20000;-91
2023/12/22 11:33:55;;;;;;;4.07;2.25;;;;;;;;;;6222274;23;20004;-92
2023/12/22 11:36:24;;;;;;;2.67;2.05;;;;;;;;;;6221925;23;20008;-90
2023/12/22 11:38:49;;;;;;;3.20;2.33;;;;;;;;;;6220878;23;20039;-85
2023/12/22 11:41:24;;;;;;;3.33;1.98;;;;;;;;;;6248467;23;20008;-82
2023/12/22 11:43:53;;;;;;;2.30;2.10;;;;;;;;;;6255157;23;20004;-84
2023/12/22 11:46:18;;;;;;;3.05;2.00;;;;;;;;;;6255609;23;20004;-84
2023/12/22 11:48:52;;;;;;;2.92;1.73;;;;;;;;;;6247657;23;20146;-84
2023/12/22 11:51:18;;;;;;;2.08;1.67;;;;;;;;;;6247590;23;20004;-88
2023/12/22 11:53:44;;;;;;;2.05;1.50;;;;;;;;;;6247823;23;20087;-89
2023/12/22 11:56:11;;;;;;;1.90;1.48;;;;;;;;;;6246995;23;20327;-86
2023/12/22 11:58:41;;;;;;;2.03;1.25;;;;;;;;;;6219682;23;20032;-86
2023/12/22 12:01:07;;;;;;;;;;;;;;;;;;6220169;23;20323;-85
2023/12/22 12:03:38;;;;;;;1.50;1.23;;;;;;;;;;6246544;23;19934;-91
2023/12/22 12:06:26;;;;;;;1.40;1.30;;;;;;;;;;6220833;23;20419;-87
2023/12/22 12:08:55;;;;;;;1.50;1.40;;;;;;;;;;6247853;23;20020;-88
2023/12/22 12:11:41;;;;;;;2.00;1.38;;;;;;;;;;6248878;23;20008;-87
2023/12/22 12:14:11;;;;;;;1.25;1.10;;;;;;;;;;6251338;22;19983;-88
2023/12/22 12:16:38;;;;;;;;;;;;;;;;;;6222357;23;20013;-89
2023/12/22 12:19:08;;;;;;;1.05;0.95;;;;;;;;;;6221995;23;19908;-87
2023/12/22 12:21:33;;;;;;;1.65;1.55;;;;;;;;;;6221771;23;20015;-85
2023/12/22 12:23:59;;;;;;;3.35;1.98;;;;;;;;;;6248099;23;20411;-85
2023/12/22 12:26:25;;;;;;;1.10;0.95;;;;;;;;;;6221517;23;20039;-87
2023/12/22 12:28:51;;;;;;;1.40;1.30;;;;;;;;;;6248180;23;20008;-88
2023/12/22 12:31:16;;;;;;;2.75;1.20;;;;;;;;;;6248133;23;20012;-86
2023/12/22 12:33:42;;;;;;;2.03;1.00;;;;;;;;;;6221412;23;20004;-89
2023/12/22 12:36:11;;;;;;;1.48;1.02;;;;;;;;;;6250363;23;20000;-91
2023/12/22 12:38:58;;;;;;;2.13;1.40;;;;;;;;;;6250839;23;20004;-90
2023/12/22 12:41:31;;;;;;;1.50;1.00;;;;;;;;;;6225662;23;20000;-95
2023/12/22 12:43:58;;;;;;;1.15;1.05;;;;;;;;;;6227229;23;20277;-93
2023/12/22 12:46:23;;;;;;;1.10;1.10;;;;;;;;;;6252098;23;20000;-95
2023/12/22 16:28:57;;;;;;;8.13;5.97;;;;;;;;;;6232713;22;20035;-86
2023/12/22 16:31:23;;;;;;;6.32;4.47;;;;;;;;;;6190696;23;20017;-87
2023/12/22 16:33:48;;;;;;;6.35;3.55;;;;;;;;;;6189757;23;20474;-87
2023/12/22 16:36:13;;;;;;;6.10;3.58;;;;;;;;;;6189497;23;20519;-88
2023/12/22 16:38:41;;;;;;;11.35;6.78;;;;;;;;;;6189197;23;20016;-88
2023/12/22 16:41:06;;;;;;;13.57;9.15;;;;;;;;;;6189365;23;20005;-88
2023/12/22 16:43:34;;;;;;;16.58;14.27;;;;;;;;;;6189527;23;20038;-88
2023/12/22 16:46:00;;;;;;;5.40;4.57;;;;;;;;;;6188919;23;20004;-88
2023/12/22 16:48:25;;;;;;;0.90;0.90;;;;;;;;;;6189203;23;20051;-89
2023/12/22 16:50:51;;;;;;;9.00;8.20;;;;;;;;;;6189169;23;20013;-87
2023/12/22 16:53:16;;;;;;;3.83;3.53;;;;;;;;;;6215468;23;20309;-87
2023/12/22 16:55:41;;;;;;;3.72;3.28;;;;;;;;;;6215400;23;20000;-87
2023/12/22 16:58:07;;;;;;;4.50;4.10;;;;;;;;;;6189323;23;20020;-86
2023/12/22 17:00:32;;;;;;;3.10;2.80;;;;;;;;;;6215932;23;20004;-89
2023/12/22 17:02:58;;;;;;;2.60;2.20;;;;;;;;;;6215563;23;20004;-89
2023/12/22 17:05:24;;;;;;;4.95;3.33;;;;;;;;;;6215620;23;20005;-82
2023/12/22 17:07:49;;;;;;;8.90;4.03;;;;;;;;;;6215280;23;20012;-82
2023/12/22 17:10:15;;;;;;;4.05;3.65;;;;;;;;;;6215559;23;20032;-81
2023/12/22 17:12:41;;;;;;;2.55;2.35;;;;;;;;;;6215218;23;20004;-82
2023/12/22 17:15:07;;;;;;;1.90;1.80;;;;;;;;;;6215576;23;20411;-81
2023/12/22 17:17:32;;;;;;;4.43;2.30;;;;;;;;;;6215519;23;20424;-82
2023/12/22 17:19:59;;;;;;;4.13;3.25;;;;;;;;;;6215725;23;20047;-82
2023/12/22 17:22:24;;;;;;;5.53;5.10;;;;;;;;;;6215228;23;20004;-82
2023/12/22 17:24:50;;;;;;;3.17;2.90;;;;;;;;;;6215333;23;20031;-80
2023/12/22 17:27:15;;;;;;;3.92;2.65;;;;;;;;;;6216055;23;20001;-85
2023/12/22 17:29:42;;;;;;;4.20;3.00;;;;;;;;;;6183787;23;1146897;-81
2023/12/22 17:32:08;;;;;;;3.03;2.75;;;;;;;;;;6247015;23;20012;-82
2023/12/22 17:34:34;;;;;;;3.08;2.58;;;;;;;;;;6247527;23;20028;-85
2023/12/22 17:37:00;;;;;;;3.97;3.15;;;;;;;;;;6246967;22;20000;-82
2023/12/22 17:39:26;;;;;;;4.45;3.20;;;;;;;;;;6247654;23;20370;-86
2023/12/22 17:41:52;;;;;;;3.90;3.25;;;;;;;;;;6248125;23;20008;-85
2023/12/22 17:44:17;;;;;;;3.92;3.03;;;;;;;;;;6247817;23;20008;-85
2023/12/22 17:46:42;;;;;;;6.00;5.40;;;;;;;;;;6248561;22;20004;-86
2023/12/22 17:49:08;;;;;;;4.60;4.20;;;;;;;;;;6249319;23;20070;-83
2023/12/22 17:51:33;;;;;;;4.00;3.45;;;;;;;;;;6247664;23;20004;-82
2023/12/22 17:53:59;;;;;;;3.88;3.47;;;;;;;;;;6248359;23;20075;-83
2023/12/22 17:56:25;;;;;;;4.47;3.70;;;;;;;;;;6247582;22;20004;-81
2023/12/22 17:58:50;;;;;;;3.30;2.80;;;;;;;;;;6247389;23;20007;-81
2023/12/22 18:01:16;;;;;;;2.30;2.10;;;;;;;;;;6247790;23;20004;-80
2023/12/22 18:03:42;;;;;;;2.28;2.08;;;;;;;;;;6247090;23;20014;-81
2023/12/22 18:06:07;;;;;;;3.45;2.70;;;;;;;;;;6219860;23;20040;-82
2023/12/22 18:08:33;;;;;;;5.35;3.40;;;;;;;;;;6246757;23;20023;-81
2023/12/22 18:10:58;;;;;;;2.80;2.50;;;;;;;;;;6247126;23;20004;-81
2023/12/22 18:13:24;;;;;;;3.67;2.85;;;;;;;;;;6247314;23;19996;-83
2023/12/22 18:15:49;;;;;;;4.18;3.17;;;;;;;;;;6246867;22;20356;-80
2023/12/22 18:18:14;;;;;;;4.40;3.38;;;;;;;;;;6246800;23;20010;-81
2023/12/22 18:20:40;;;;;;;5.10;3.30;;;;;;;;;;6246860;23;19996;-80
2023/12/22 18:23:07;;;;;;;4.68;3.80;;;;;;;;;;6246786;23;20035;-80
2023/12/22 18:25:32;;;;;;;4.00;3.50;;;;;;;;;;6246539;22;20347;-79
2023/12/22 18:27:58;;;;;;;3.83;3.40;;;;;;;;;;6247091;23;20016;-80
2023/12/22 18:30:23;;;;;;;4.53;2.33;;;;;;;;;;6246369;23;20089;-79
2023/12/22 18:32:48;;;;;;;3.03;2.45;;;;;;;;;;6246632;23;20012;-83
2023/12/22 18:35:14;;;;;;;4.32;3.35;;;;;;;;;;6246944;22;20015;-82
2023/12/22 18:37:40;;;;;;;26.92;19.23;;;;;;;;;;6220920;23;20090;-80
2023/12/22 18:40:09;;;;;;;9.40;7.43;;;;;;;;;;6247555;23;20355;-81
2023/12/22 18:42:37;;;;;;;9.63;6.57;;;;;;;;;;6247811;23;20416;-83
2023/12/22 18:45:03;;;;;;;6.90;5.65;;;;;;;;;;6247631;22;20062;-81
2023/12/22 18:47:30;;;;;;;4.47;4.07;;;;;;;;;;6246912;23;20004;-81
2023/12/22 18:49:56;;;;;;;5.35;3.15;;;;;;;;;;6247015;23;20300;-81
2023/12/22 18:52:21;;;;;;;4.28;3.03;;;;;;;;;;6246625;23;20008;-82
2023/12/22 18:54:47;;;;;;;4.00;3.30;;;;;;;;;;6246780;23;20000;-82
2023/12/22 18:57:13;;;;;;;2.90;2.60;;;;;;;;;;6246566;22;20032;-81
2023/12/22 18:59:39;;;;;;;2.60;2.30;;;;;;;;;;6246597;23;19996;-82
2023/12/22 19:02:04;;;;;;;4.88;4.38;;;;;;;;;;6246623;23;20046;-81
2023/12/22 19:04:30;;;;;;;3.67;3.30;;;;;;;;;;6246572;23;20328;-82
2023/12/22 19:06:55;;;;;;;5.20;3.75;;;;;;;;;;6219790;23;20008;-82
2023/12/22 19:09:21;;;;;;;4.07;3.65;;;;;;;;;;6246652;23;20004;-80
2023/12/22 19:11:46;;;;;;;3.80;2.30;;;;;;;;;;6246516;23;20320;-81
2023/12/22 19:14:14;;;;;;;2.30;1.98;;;;;;;;;;6219765;23;20032;-82
2023/12/22 19:16:40;;;;;;;5.50;4.40;;;;;;;;;;6246324;22;20010;-81
2023/12/22 19:19:06;;;;;;;4.57;3.28;;;;;;;;;;6246569;23;20000;-80
2023/12/22 19:21:32;;;;;;;7.63;3.55;;;;;;;;;;6246376;23;20087;-80
2023/12/22 19:23:58;;;;;;;6.75;3.20;;;;;;;;;;6246231;23;20043;-80
2023/12/22 19:26:36;;;;;;;4.30;2.55;;;;;;;;;;6245025;23;20111;-79
2023/12/22 19:29:02;;;;;;;4.25;3.17;;;;;;;;;;6245975;23;20063;-81
2023/12/22 19:31:30;;;;;;;6.45;4.38;;;;;;;;;;6246357;23;20004;-81
2023/12/22 19:33:58;;;;;;;5.22;3.50;;;;;;;;;;6246333;23;20011;-84
2023/12/22 19:36:24;;;;;;;5.15;3.03;;;;;;;;;;6246073;22;20000;-81
2023/12/22 19:38:52;;;;;;;3.88;3.13;;;;;;;;;;6246179;23;20011;-81
2023/12/22 19:41:21;;;;;;;3.42;2.72;;;;;;;;;;6246398;23;20016;-81
2023/12/22 19:43:46;;;;;;;2.83;2.10;;;;;;;;;;6246434;23;20004;-82
2023/12/22 19:46:12;;;;;;;2.47;1.83;;;;;;;;;;6246401;22;20068;-80
2023/12/22 19:48:37;;;;;;;2.00;1.80;;;;;;;;;;6246262;23;20011;-84
2023/12/22 19:51:03;;;;;;;3.05;2.28;;;;;;;;;;6246615;23;20011;-80
2023/12/22 19:53:28;;;;;;;3.72;2.25;;;;;;;;;;6220169;23;20012;-81
2023/12/22 19:55:54;;;;;;;2.70;2.03;;;;;;;;;;6246921;22;20327;-84
2023/12/22 19:58:19;;;;;;;5.63;3.22;;;;;;;;;;6219956;23;20004;-82
2023/12/22 20:00:45;;;;;;;6.15;3.65;;;;;;;;;;6246951;23;20023;-87
2023/12/22 20:03:11;;;;;;;6.35;3.78;;;;;;;;;;6246711;23;20012;-80
2023/12/22 20:05:36;;;;;;;8.50;4.10;;;;;;;;;;6246305;22;20005;-80
2023/12/22 20:08:02;;;;;;;6.80;3.90;;;;;;;;;;6246546;23;20007;-81
2023/12/22 20:10:28;;;;;;;6.47;3.13;;;;;;;;;;6246449;23;20015;-82
2023/12/22 20:12:53;;;;;;;4.60;3.40;;;;;;;;;;6246477;23;20004;-80
2023/12/22 20:15:18;;;;;;;4.40;3.38;;;;;;;;;;6246202;22;20036;-81
2023/12/22 20:17:45;;;;;;;4.65;3.03;;;;;;;;;;6219535;23;20024;-80
2023/12/22 20:20:11;;;;;;;2.60;1.98;;;;;;;;;;6220232;23;20339;-81
2023/12/22 20:22:37;;;;;;;3.22;1.85;;;;;;;;;;6246377;23;20000;-84
2023/12/22 20:25:03;;;;;;;3.40;2.35;;;;;;;;;;6246203;22;20053;-83
2023/12/22 20:27:28;;;;;;;2.60;2.40;;;;;;;;;;6247293;23;20008;-83
2023/12/22 20:29:54;;;;;;;3.10;2.30;;;;;;;;;;6248194;23;20040;-86
2023/12/22 20:32:19;;;;;;;5.22;3.45;;;;;;;;;;6248063;23;20000;-80
2023/12/22 20:34:45;;;;;;;6.20;3.10;;;;;;;;;;6221187;23;20059;-80
2023/12/22 20:37:10;;;;;;;4.07;3.33;;;;;;;;;;6247871;22;20004;-81
2023/12/22 20:39:35;;;;;;;5.15;2.17;;;;;;;;;;6248341;23;20035;-82
2023/12/22 20:42:01;;;;;;;2.83;2.25;;;;;;;;;;6247697;23;19996;-81
2023/12/22 20:44:26;;;;;;;4.60;3.35;;;;;;;;;;6248412;23;20011;-84
2023/12/22 20:46:52;;;;;;;5.00;2.75;;;;;;;;;;6247731;22;20000;-83
2023/12/22 20:49:18;;;;;;;3.00;2.17;;;;;;;;;;6220970;23;20011;-81
2023/12/22 20:51:45;;;;;;;4.10;3.30;;;;;;;;;;6247807;23;20359;-80
2023/12/22 20:54:11;;;;;;;1.98;1.80;;;;;;;;;;6247916;23;20011;-81
2023/12/22 20:56:37;;;;;;;1.50;1.40;;;;;;;;;;6247909;22;20000;-81
2023/12/22 20:59:02;;;;;;;;;;;;;;;;;;6247812;23;20004;-81
2023/12/22 21:01:28;;;;;;;;;;;;;;;;;;6248073;23;20250;-80
2023/12/22 21:03:53;;;;;;;;;;;;;;;;;;6248116;23;20238;-82
2023/12/22 21:06:18;;;;;;;;;;;;;;;;;;6248113;22;19908;-81
2023/12/22 21:08:44;;;;;;;;;;;;;;;;;;6247973;23;20243;-79
2023/12/22 21:11:10;;;;;;;;;;;;;;;;;;6221141;23;19908;-84
2023/12/22 21:13:35;;;;;;;;;;;;;;;;;;6248296;23;19951;-82
2023/12/22 21:16:05;;;;;;;;;;;;;;;;;;6248075;22;19907;-81
2023/12/22 21:18:33;;;;;;;;;;;;;;;;;;6248672;23;20315;-83
2023/12/22 21:20:59;;;;;;;;;;;;;;;;;;6248780;23;19918;-82
2023/12/22 21:23:24;;;;;;;;;;;;;;;;;;6249030;23;19978;-82
2023/12/22 21:25:49;;;;;;;;;;;;;;;;;;6248766;22;19929;-84
2023/12/22 21:28:15;;;;;;;;;;;;;;;;;;6249114;23;20319;-82
2023/12/22 21:30:40;;;;;;;;;;;;;;;;;;6249038;23;19918;-83
2023/12/22 21:33:06;;;;;;;;;;;;;;;;;;6248499;23;20319;-84
2023/12/22 21:35:31;;;;;;;;;;;;;;;;;;6248817;22;19915;-85
2023/12/22 21:37:56;;;;;;;;;;;;;;;;;;6248298;23;20310;-85
2023/12/22 21:40:22;;;;;;;;;;;;;;;;;;6248888;23;19930;-82
2023/12/22 21:42:48;;;;;;;;;;;;;;;;;;6249579;23;19918;-82
2023/12/22 21:45:13;;;;;;;;;;;;;;;;;;6248911;22;19907;-82
2023/12/22 21:47:39;;;;;;;;;;;;;;;;;;6248508;23;19907;-82
2023/12/22 21:50:05;;;;;;;;;;;;;;;;;;6248801;23;19986;-81
2023/12/22 21:52:30;;;;;;;;;;;;;;;;;;6247947;23;20317;-85
2023/12/22 21:54:56;;;;;;;;;;;;;;;;;;6248050;22;19908;-85
2023/12/22 21:57:21;;;;;;;;;;;;;;;;;;6248314;23;19911;-80
2023/12/22 21:59:47;;;;;;;;;;;;;;;;;;6247823;23;19908;-82
2023/12/22 22:02:13;;;;;;;;;;;;;;;;;;6220771;23;19907;-82
2023/12/22 22:04:40;;;;;;;;;;;;;;;;;;6248296;23;19914;-82
2023/12/22 22:07:05;;;;;;;;;;;;;;;;;;6247536;22;19908;-82
2023/12/22 22:09:31;;;;;;;;;;;;;;;;;;6247642;23;19907;-81
2023/12/22 22:11:56;;;;;;;;;;;;;;;;;;6248231;23;20235;-87
2023/12/22 22:14:21;;;;;;;;;;;;;;;;;;6248885;23;19918;-85
2023/12/22 22:16:46;;;;;;;;;;;;;;;;;;6248943;22;19914;-87
2023/12/22 22:19:12;;;;;;;;;;;;;;;;;;6248285;23;19962;-86
2023/12/22 22:21:38;;;;;;;;;;;;;;;;;;6248852;23;19911;-87
2023/12/22 22:24:04;;;;;;;;;;;;;;;;;;6248524;23;19938;-87
2023/12/22 22:26:32;;;;;;;;;;;;;;;;;;6221520;23;19912;-87
2023/12/22 22:28:57;;;;;;;;;;;;;;;;;;6247825;23;19922;-84
2023/12/22 22:31:23;;;;;;;;;;;;;;;;;;6248856;23;19911;-85
2023/12/22 22:33:48;;;;;;;;;;;;;;;;;;6222593;23;19910;-90
2023/12/22 22:36:14;;;;;;;;;;;;;;;;;;6248370;22;20247;-82
2023/12/22 22:38:40;;;;;;;;;;;;;;;;;;6247673;23;19942;-82
2023/12/22 22:41:09;;;;;;;;;;;;;;;;;;6247965;23;20338;-83
2023/12/22 22:43:34;;;;;;;;;;;;;;;;;;6248079;23;19911;-84
2023/12/22 22:46:00;;;;;;;;;;;;;;;;;;6248491;22;19985;-89
2023/12/22 22:48:26;;;;;;;;;;;;;;;;;;6249086;23;19930;-90
2023/12/22 22:50:52;;;;;;;;;;;;;;;;;;6249479;23;19908;-89
2023/12/22 22:53:18;;;;;;;;;;;;;;;;;;6252428;23;19912;-88
2023/12/22 22:55:43;;;;;;;;;;;;;;;;;;6250007;22;19908;-88
2023/12/22 22:58:08;;;;;;;;;;;;;;;;;;6251723;23;19907;-86
2023/12/22 23:00:34;;;;;;;;;;;;;;;;;;6251261;23;19907;-89
2023/12/22 23:02:59;;;;;;;;;;;;;;;;;;6252226;23;19907;-89
2023/12/22 23:05:24;;;;;;;;;;;;;;;;;;6252635;22;19912;-83
2023/12/22 23:07:50;;;;;;;;;;;;;;;;;;6226219;23;20243;-83
2023/12/22 23:10:15;;;;;;;;;;;;;;;;;;6253966;23;19915;-83
2023/12/22 23:12:41;;;;;;;;;;;;;;;;;;6240045;23;19951;-84
2023/12/22 23:15:07;;;;;;;;;;;;;;;;;;6252350;22;19907;-83
2023/12/22 23:17:32;;;;;;;;;;;;;;;;;;6223054;23;20303;-83
2023/12/22 23:19:58;;;;;;;;;;;;;;;;;;6220372;23;19934;-83
